Frostproof, FL (33843)

10:31 AM EDT on September 02, 2015 (GMT -0400)
APRSWXNET | | Change Station
CLOSE
Current Station
Personal Weather Station
Location: Frostproof, FL
Elevation: 134 ft
Nearby Weather Stations

Elev 134 ft 27.76 °N, 81.57 °W | Updated 32 minutes ago

Clear
Clear
85 °F
Feels Like 94 °F
N
4
Wind Variable Wind from SSW
Gusts 5.0 mph

Today
High -- | Low -- °F
--% Chance of Precip.
Yesterday
High -- | Low -- °F
Precip. -- in
7:05 AM 7:46 PM
Waning Gibbous, 80% visible
Pressure 30.11 in
Visibility 10.0 miles
Clouds Few 1500 ft
Heat Index 94 °F
Dew Point 75 °F
Humidity 73%
Rainfall in
Snow Depth Not available.
UV 5 out of 12
Pollen 5.50 out of 12
Air Quality Not available.
Flu Activity Not available.
METAR KBOW 021347Z 00000KT 10SM FEW015 28/24 A3011
Pressure 30.11 in
Visibility 10.0 miles
Clouds Few 1500 ft
Heat Index 94 °F
Dew Point 75 °F
Humidity 73%
Rainfall in
Snow Depth Not available.
UV 5 out of 12
Pollen 5.50 out of 12
Air Quality Not available.
Flu Activity Not available.
METAR KBOW 021347Z 00000KT 10SM FEW015 28/24 A3011

10-Day Weather Forecast

×

Almanac

Astronomy

Sep. 02, 2015 Rise Set
Actual Time
Civil Twilight
Nautical Twilight
Astronomical Twilight
Moon
Length of Visible Light
Length of Day
Tomorrow will be .
, % of the Moon is Illuminated

Today's Extremes

State Highs State Lows

Community

WunderPhotos

Upload Photos

1,851,763 photos uploaded!

WunderBlogs® & News

Nearby

Air Quality

  Air Quality AQ Index Pollutant
Not available.

Snow Depth

Station Depth Elevation

Earthquake Activity

City Distance Mag. Time & Date
Minimum magnitude displayed is 2.5.

Coastal Water Temperatures

Place Temperature

Stations

Nearby Weather Stations

Station Location Temp. Windchill Dew Point Humidity Wind Precip. Elev Updated Type